createdAt,value
2022-09-10T00:02:20.498Z,97440.38
2022-09-10T00:07:24.402Z,97442.28
2022-09-10T00:12:27.849Z,97430.06
2022-09-10T00:17:31.331Z,97432.00
2022-09-10T00:22:34.726Z,97432.00
2022-09-10T00:27:38.587Z,97432.31
2022-09-10T00:32:41.743Z,97431.19
2022-09-10T00:37:45.059Z,97428.13
2022-09-10T00:42:48.524Z,97427.34
2022-09-10T00:47:56.708Z,97423.81
2022-09-10T00:53:04.675Z,97420.75
2022-09-10T00:58:12.330Z,97428.13
2022-09-10T01:03:17.236Z,97431.69
2022-09-10T01:08:21.058Z,97426.00
2022-09-10T01:14:06.537Z,97424.38
2022-09-10T01:19:34.885Z,97421.63
2022-09-10T01:25:03.441Z,97417.63
2022-09-10T01:30:09.446Z,97418.25
2022-09-10T01:35:29.575Z,97414.69
2022-09-10T01:40:34.118Z,97413.38
2022-09-10T01:45:47.541Z,97406.63
2022-09-10T01:51:04.273Z,97407.75
2022-09-10T01:56:35.281Z,97405.63
2022-09-10T02:01:50.085Z,97406.25
2022-09-10T02:06:56.643Z,97410.69
2022-09-10T02:12:00.282Z,97412.94
2022-09-10T02:17:23.780Z,97410.00
2022-09-10T02:22:29.371Z,97402.13
2022-09-10T02:27:34.462Z,97404.31
2022-09-10T02:32:37.753Z,97409.78
2022-09-10T02:37:42.847Z,97417.97
2022-09-10T02:42:47.756Z,97417.47
2022-09-10T02:47:55.946Z,97420.81
2022-09-10T02:53:00.484Z,97418.69
2022-09-10T02:58:03.798Z,97422.53
2022-09-10T03:03:08.657Z,97422.31
2022-09-10T03:08:12.619Z,97418.31
2022-09-10T03:13:19.946Z,97422.72
2022-09-10T03:18:23.653Z,97408.41
2022-09-10T03:23:26.943Z,97419.03
2022-09-10T03:28:30.184Z,97421.75
2022-09-10T03:33:35.137Z,97427.69
2022-09-10T03:38:39.249Z,97429.63
2022-09-10T03:43:42.547Z,97429.31
2022-09-10T03:48:50.027Z,97438.81
2022-09-10T03:53:58.913Z,97439.63
2022-09-10T03:59:02.084Z,97446.88
2022-09-10T04:04:05.997Z,97449.81
2022-09-10T04:09:09.411Z,97453.03
2022-09-10T04:14:13.489Z,97457.88
2022-09-10T04:19:19.008Z,97453.72
2022-09-10T04:24:24.576Z,97460.69
2022-09-10T04:29:28.881Z,97468.47
2022-09-10T04:34:32.415Z,97458.75
2022-09-10T04:39:35.896Z,97468.16
2022-09-10T04:44:40.030Z,97472.59
2022-09-10T04:49:43.547Z,97464.38
2022-09-10T04:54:48.221Z,97472.63
2022-09-10T04:59:53.086Z,97470.84
2022-09-10T05:04:58.736Z,97462.78
2022-09-10T05:10:02.852Z,97472.88
2022-09-10T05:15:07.136Z,97485.94
2022-09-10T05:20:11.364Z,97487.25
2022-09-10T05:25:23.794Z,97489.72
2022-09-10T05:30:27.507Z,97493.31
2022-09-10T05:35:31.067Z,97492.78
2022-09-10T05:40:35.812Z,97491.53
2022-09-10T05:45:40.157Z,97491.00
2022-09-10T05:50:44.024Z,97494.28
2022-09-10T05:55:47.541Z,97495.22
2022-09-10T06:00:52.550Z,97496.81
2022-09-10T06:05:56.857Z,97502.81
2022-09-10T06:11:06.613Z,97510.31
2022-09-10T06:16:17.902Z,97506.38
2022-09-10T06:21:28.280Z,97512.19
2022-09-10T06:26:33.519Z,97505.56
2022-09-10T06:31:42.493Z,97515.13
2022-09-10T06:36:48.432Z,97520.97
2022-09-10T06:41:53.212Z,97531.56
2022-09-10T06:48:18.793Z,97538.53
2022-09-10T06:52:40.046Z,97541.38
2022-09-10T06:57:46.482Z,97547.09
2022-09-10T07:02:53.280Z,97538.81
2022-09-10T07:07:58.619Z,97544.19
2022-09-10T07:13:02.984Z,97544.25
2022-09-10T07:18:07.275Z,97547.06
2022-09-10T07:23:14.655Z,97545.69
2022-09-10T07:28:18.885Z,97544.13
2022-09-10T07:33:25.363Z,97536.09
2022-09-10T07:38:29.150Z,97541.28
2022-09-10T07:43:32.994Z,97537.88
2022-09-10T07:48:37.319Z,97522.31
2022-09-10T07:53:50.032Z,97509.94
2022-09-10T07:58:55.979Z,97501.53
2022-09-10T08:04:05.166Z,97513.47
2022-09-10T08:09:11.080Z,97509.59
2022-09-10T08:14:31.079Z,97508.25
2022-09-10T08:19:39.936Z,97504.88
2022-09-10T08:24:43.774Z,97498.06
2022-09-10T08:29:47.390Z,97499.25
2022-09-10T08:34:50.747Z,97503.50
2022-09-10T08:39:54.531Z,97492.59
2022-09-10T08:45:31.196Z,97493.63
2022-09-10T08:50:54.214Z,97487.31
2022-09-10T08:56:05.011Z,97489.38
2022-09-10T09:01:16.040Z,97485.34
2022-09-10T09:06:41.588Z,97485.53
2022-09-10T09:11:49.467Z,97486.59
2022-09-10T09:17:20.447Z,97483.69
2022-09-10T09:22:38.147Z,97477.59
2022-09-10T09:27:49.746Z,97476.13
2022-09-10T09:32:59.132Z,97473.22
2022-09-10T09:38:08.782Z,97474.16
2022-09-10T09:43:33.355Z,97463.97
2022-09-10T09:48:41.467Z,97467.03
2022-09-10T09:53:48.208Z,97461.06
2022-09-10T09:58:54.236Z,97464.19
2022-09-10T10:04:00.818Z,97453.50
2022-09-10T10:09:20.831Z,97461.03
2022-09-10T10:14:32.048Z,97443.94
2022-09-10T10:19:40.657Z,97448.66
2022-09-10T10:24:46.022Z,97451.28
2022-09-10T10:30:05.504Z,97448.06
2022-09-10T10:35:33.190Z,97436.25
2022-09-10T10:40:46.940Z,97442.44
2022-09-10T10:46:27.670Z,97434.06
2022-09-10T10:51:49.663Z,97426.72
2022-09-10T10:57:12.416Z,97424.88
2022-09-10T11:02:23.113Z,97415.69
2022-09-10T11:07:33.968Z,97425.69
2022-09-10T11:12:46.845Z,97416.66
2022-09-10T11:18:15.198Z,97410.25
2022-09-10T11:23:44.981Z,97400.25
2022-09-10T11:29:12.798Z,97398.31
2022-09-10T11:34:35.450Z,97387.31
2022-09-10T11:39:51.295Z,97384.72
2022-09-10T11:45:16.844Z,97379.06
2022-09-10T11:50:41.566Z,97379.22
2022-09-10T11:56:09.990Z,97374.16
2022-09-10T12:01:28.487Z,97364.97
2022-09-10T12:06:44.493Z,97369.81
2022-09-10T12:11:57.697Z,97359.84
2022-09-10T12:17:28.805Z,97356.63
2022-09-10T12:22:36.349Z,97352.25
2022-09-10T12:27:49.157Z,97352.50
2022-09-10T12:32:54.337Z,97336.56
2022-09-10T12:38:37.221Z,97336.41
2022-09-10T12:43:40.427Z,97338.22
2022-09-10T12:49:10.988Z,97331.13
2022-09-10T12:54:50.909Z,97328.13
2022-09-10T13:00:32.975Z,97328.81
2022-09-10T13:05:39.571Z,97325.28
2022-09-10T13:10:47.239Z,97318.84
2022-09-10T13:15:53.807Z,97323.03
2022-09-10T13:20:57.707Z,97311.94
2022-09-10T13:26:29.414Z,97314.34
2022-09-10T13:31:36.151Z,97309.66
2022-09-10T13:36:46.398Z,97304.66
2022-09-10T13:41:56.973Z,97302.69
2022-09-10T13:47:10.457Z,97302.56
2022-09-10T13:52:18.127Z,97296.91
2022-09-10T13:57:38.760Z,97292.56
2022-09-10T14:02:45.863Z,97289.53
2022-09-10T14:07:51.265Z,97296.38
2022-09-10T14:12:55.824Z,97296.91
2022-09-10T14:18:00.203Z,97298.25
2022-09-10T14:23:13.110Z,97291.72
2022-09-10T14:28:16.404Z,97288.50
2022-09-10T14:33:35.644Z,97294.03
2022-09-10T14:38:40.298Z,97299.25
2022-09-10T14:43:44.671Z,97301.53
2022-09-10T14:49:00.504Z,97304.94
2022-09-10T14:54:03.815Z,97292.88
2022-09-10T14:59:26.360Z,97302.56
2022-09-10T15:04:30.332Z,97306.03
2022-09-10T15:09:34.029Z,97294.97
2022-09-10T15:14:39.446Z,97297.75
2022-09-10T15:19:43.037Z,97290.34
2022-09-10T15:25:08.152Z,97297.34
2022-09-10T15:30:10.286Z,97299.34
2022-09-10T15:35:13.979Z,97294.84
2022-09-10T15:40:17.977Z,97295.22
2022-09-10T15:45:22.071Z,97303.91
2022-09-10T15:50:27.236Z,97306.19
2022-09-10T15:55:31.140Z,97310.09
2022-09-10T16:00:35.149Z,97316.97
2022-09-10T16:05:38.510Z,97318.09
2022-09-10T16:10:42.336Z,97323.59
2022-09-10T16:16:04.897Z,97320.22
2022-09-10T16:21:15.207Z,97318.91
2022-09-10T16:26:24.483Z,97328.06
2022-09-10T16:31:29.100Z,97334.34
2022-09-10T16:36:35.139Z,97333.22
2022-09-10T16:41:40.271Z,97336.41
2022-09-10T16:46:45.132Z,97338.13
2022-09-10T16:51:48.774Z,97351.94
2022-09-10T16:56:52.235Z,97357.06
2022-09-10T17:01:56.064Z,97356.13
2022-09-10T17:06:59.964Z,97367.34
2022-09-10T17:12:03.240Z,97368.31
2022-09-10T17:17:06.516Z,97377.94
2022-09-10T17:22:09.914Z,97376.97
2022-09-10T17:27:13.132Z,97377.59
2022-09-10T17:32:16.468Z,97384.81
2022-09-10T17:37:19.891Z,97381.91
2022-09-10T17:42:25.201Z,97387.69
2022-09-10T17:47:28.850Z,97383.66
2022-09-10T17:52:32.228Z,97390.56
2022-09-10T17:57:35.609Z,97396.63
2022-09-10T18:02:38.988Z,97400.50
2022-09-10T18:07:42.387Z,97394.53
2022-09-10T18:12:46.963Z,97395.66
2022-09-10T18:17:50.502Z,97393.53
2022-09-10T18:22:54.236Z,97394.19
2022-09-10T18:27:58.355Z,97392.56
2022-09-10T18:33:01.742Z,97392.06
2022-09-10T18:38:05.098Z,97389.94
2022-09-10T18:43:08.862Z,97393.78
2022-09-10T18:48:12.366Z,97395.22
2022-09-10T18:53:15.755Z,97402.91
2022-09-10T18:58:19.002Z,97385.25
2022-09-10T19:03:22.276Z,97384.72
2022-09-10T19:08:25.748Z,97388.91
2022-09-10T19:13:34.167Z,97378.59
2022-09-10T19:18:37.816Z,97382.28
2022-09-10T19:23:41.164Z,97379.66
2022-09-10T19:28:45.042Z,97379.16
2022-09-10T19:33:48.260Z,97380.78
2022-09-10T19:38:53.913Z,97378.88
2022-09-10T19:43:57.337Z,97379.97
2022-09-10T19:49:00.947Z,97380.59
2022-09-10T19:54:05.175Z,97371.91
2022-09-10T19:59:09.253Z,97364.66
2022-09-10T20:04:15.040Z,97363.84
2022-09-10T20:09:22.485Z,97363.47
2022-09-10T20:14:29.105Z,97370.22
2022-09-10T20:19:32.588Z,97362.97
2022-09-10T20:24:35.896Z,97373.88
2022-09-10T20:29:39.233Z,97366.00
2022-09-10T20:34:43.699Z,97361.66
2022-09-10T20:39:47.109Z,97360.38
2022-09-10T20:44:50.663Z,97361.19
2022-09-10T20:49:54.290Z,97360.88
2022-09-10T20:54:57.689Z,97360.38
2022-09-10T21:00:07.266Z,97361.19
2022-09-10T21:05:11.220Z,97357.13
2022-09-10T21:10:14.943Z,97359.38
2022-09-10T21:15:18.396Z,97353.44
2022-09-10T21:20:22.415Z,97350.97
2022-09-10T21:25:25.903Z,97353.53
2022-09-10T21:30:29.202Z,97336.69
2022-09-10T21:35:32.471Z,97341.31
2022-09-10T21:40:35.723Z,97334.25
2022-09-10T21:45:39.253Z,97337.28
2022-09-10T21:50:42.592Z,97340.81
2022-09-10T21:55:46.004Z,97338.41
2022-09-10T22:00:49.642Z,97337.06
2022-09-10T22:05:53.197Z,97331.91
2022-09-10T22:10:56.752Z,97333.34
2022-09-10T22:16:00.150Z,97330.75
2022-09-10T22:21:07.479Z,97325.91
2022-09-10T22:26:16.528Z,97336.31
2022-09-10T22:31:26.512Z,97329.88
2022-09-10T22:36:37.886Z,97332.41
2022-09-10T22:41:42.273Z,97327.84
2022-09-10T22:46:46.143Z,97323.84
2022-09-10T22:51:50.299Z,97323.84
2022-09-10T22:56:56.049Z,97315.97
2022-09-10T23:02:05.558Z,97308.59
2022-09-10T23:07:09.399Z,97314.03
2022-09-10T23:12:12.853Z,97303.41
2022-09-10T23:17:20.657Z,97307.28
2022-09-10T23:22:26.170Z,97313.84
2022-09-10T23:27:29.431Z,97299.41
2022-09-10T23:32:32.723Z,97302.25
2022-09-10T23:37:37.112Z,97309.22
2022-09-10T23:42:40.670Z,97309.97
2022-09-10T23:47:44.696Z,97310.25
2022-09-10T23:52:48.084Z,97310.25
2022-09-10T23:57:51.742Z,97314.63
